Airfield :
LOGIN :

Register | Disclaimer

   EN    FR    IT 

 










Legend :    VFR   Marginal VFR   IFR   Intensive IFR   Very Intensive IFR
Visi :
Ceiling :
>= 8 km
>= 3000ft
5 to 8 km
1000 to 3000 ft
1500m to 5 km
500 to 1000 ft
800 to 1500m
200 to 500 ft
< 800m
< 200 ft
Symbols :   Thunderstorms  Fog  Heavy snow  Heavy precipitations  Wind > 20 kt
SIGMETs :     Misc.  Thunderstorms  Icing  Turbulence  Mountain Waves  Volcanic Ashes







- Airport Elevation : 25 ft
- IATA code : QCY


EGXC - RAF Coningsby

CURRENT METAR :
  • 162350Z 27009KT CAVOK 19/13 Q1012 BLU

EXPIRED METARs :
  • 162250Z 27007KT CAVOK 20/14 Q1011 BLU
  • 162150Z 26006KT CAVOK 21/14 Q1012 BLU
  • 162050Z 24009KT CAVOK 22/14 Q1011 BLU

TAF TAF EGXC
Valid from the 17 at 00:00 until the 17 at 18:00 UTC


162230Z 1700/1718 27006KT 9999 SCT045
PROB30
TEMPO 1700/1702 6000 SHRA BKN030CB
PROB30
TEMPO 1702/1706 BKN020
No reported NOTAMs for that airfield.
1 SIGMET reported for the London FIR (EGTT) :
 
Embedded thunderstorms
EGTT SIGMET 07 VALID 162300/170200 EGRR
EGTT LONDON FIR EMBD TS FCST WI N5500 W00038 - N5413 E00006 - N5348 E00017 - N5351 W00022 - N5500 W00210 - N5500 W00038 TOP FL300 MOV NE 10KT NC=



MET'MAP, your aeronautical weather chart ! - Copyright ORBIFLY December 2007 - Disclaimer

ORBIFLY MET'MAP TEAM :

Programming & Development : Alexandra Zaïnal
Concept & Development : Baudouin d'Aumeries
Co-Development & Prog : Marc-Olivier Méhu
Technical & hardware support : Manuel Goepfert

Contact : metmap@orbifly.com




SOURCES & CREDITS :

   NOAA